sensor_id;sensor_type;location;lat;lon;timestamp;pressure;altitude;pressure_sealevel;temperature;humidity
56006;BME280;41888;44.696;10.522;2023-05-25T00:02:11;100429.88;;;17.97;100.00
56006;BME280;41888;44.696;10.522;2023-05-25T00:04:40;100433.63;;;17.96;100.00
56006;BME280;41888;44.696;10.522;2023-05-25T00:07:07;100442.25;;;17.98;100.00
56006;BME280;41888;44.696;10.522;2023-05-25T00:09:34;100437.69;;;17.99;100.00
56006;BME280;41888;44.696;10.522;2023-05-25T00:12:00;100445.75;;;17.99;100.00
56006;BME280;41888;44.696;10.522;2023-05-25T00:14:27;100449.59;;;18.03;100.00
56006;BME280;41888;44.696;10.522;2023-05-25T00:16:55;100450.81;;;18.17;100.00
56006;BME280;41888;44.696;10.522;2023-05-25T00:19:21;100451.81;;;18.11;100.00
56006;BME280;41888;44.696;10.522;2023-05-25T00:21:48;100455.81;;;18.08;100.00
56006;BME280;41888;44.696;10.522;2023-05-25T00:24:14;100456.91;;;18.07;100.00
56006;BME280;41888;44.696;10.522;2023-05-25T00:26:41;100460.63;;;18.01;100.00
56006;BME280;41888;44.696;10.522;2023-05-25T00:29:07;100459.03;;;18.05;100.00
56006;BME280;41888;44.696;10.522;2023-05-25T00:31:33;100450.97;;;18.05;100.00
56006;BME280;41888;44.696;10.522;2023-05-25T00:34:01;100457.09;;;18.01;100.00
56006;BME280;41888;44.696;10.522;2023-05-25T00:36:27;100453.03;;;17.98;100.00
56006;BME280;41888;44.696;10.522;2023-05-25T00:38:53;100458.09;;;17.95;100.00
56006;BME280;41888;44.696;10.522;2023-05-25T00:41:19;100450.34;;;17.98;100.00
56006;BME280;41888;44.696;10.522;2023-05-25T00:43:47;100461.66;;;18.00;100.00
56006;BME280;41888;44.696;10.522;2023-05-25T00:46:16;100457.41;;;18.04;100.00
56006;BME280;41888;44.696;10.522;2023-05-25T00:48:43;100454.22;;;18.07;100.00
56006;BME280;41888;44.696;10.522;2023-05-25T00:51:10;100452.53;;;18.01;100.00
56006;BME280;41888;44.696;10.522;2023-05-25T00:53:38;100456.81;;;17.97;100.00
56006;BME280;41888;44.696;10.522;2023-05-25T00:56:15;100440.47;;;17.82;100.00
56006;BME280;41888;44.696;10.522;2023-05-25T00:58:46;100444.41;;;17.96;100.00
56006;BME280;41888;44.696;10.522;2023-05-25T01:01:14;100442.19;;;17.93;100.00
56006;BME280;41888;44.696;10.522;2023-05-25T01:03:45;100447.84;;;17.92;100.00
56006;BME280;41888;44.696;10.522;2023-05-25T01:06:20;100451.09;;;17.94;100.00
56006;BME280;41888;44.696;10.522;2023-05-25T01:08:53;100448.16;;;17.95;100.00
56006;BME280;41888;44.696;10.522;2023-05-25T01:11:33;100456.13;;;17.85;100.00
56006;BME280;41888;44.696;10.522;2023-05-25T01:14:01;100453.72;;;17.89;100.00
56006;BME280;41888;44.696;10.522;2023-05-25T01:16:28;100452.84;;;17.83;100.00
56006;BME280;41888;44.696;10.522;2023-05-25T01:18:55;100450.28;;;17.93;100.00
56006;BME280;41888;44.696;10.522;2023-05-25T01:21:35;100454.44;;;17.79;100.00
56006;BME280;41888;44.696;10.522;2023-05-25T01:24:11;100455.25;;;17.80;100.00
56006;BME280;41888;44.696;10.522;2023-05-25T01:27:08;100467.13;;;17.84;100.00
56006;BME280;41888;44.696;10.522;2023-05-25T01:29:33;100459.19;;;17.72;100.00
56006;BME280;41888;44.696;10.522;2023-05-25T01:32:02;100460.69;;;17.85;100.00
56006;BME280;41888;44.696;10.522;2023-05-25T01:34:30;100456.00;;;17.75;100.00
56006;BME280;41888;44.696;10.522;2023-05-25T01:36:57;100460.75;;;17.90;100.00
56006;BME280;41888;44.696;10.522;2023-05-25T01:39:23;100467.38;;;17.82;100.00
56006;BME280;41888;44.696;10.522;2023-05-25T01:41:49;100465.25;;;17.84;100.00
56006;BME280;41888;44.696;10.522;2023-05-25T01:44:16;100461.38;;;17.75;100.00
56006;BME280;41888;44.696;10.522;2023-05-25T01:46:42;100458.50;;;17.82;100.00
56006;BME280;41888;44.696;10.522;2023-05-25T01:49:28;100460.75;;;17.68;100.00
56006;BME280;41888;44.696;10.522;2023-05-25T01:52:06;100454.50;;;17.62;100.00
56006;BME280;41888;44.696;10.522;2023-05-25T01:54:39;100453.03;;;17.77;100.00
56006;BME280;41888;44.696;10.522;2023-05-25T01:57:12;100463.06;;;17.81;100.00
56006;BME280;41888;44.696;10.522;2023-05-25T01:59:42;100453.44;;;17.63;100.00
56006;BME280;41888;44.696;10.522;2023-05-25T02:02:09;100463.94;;;17.65;100.00
56006;BME280;41888;44.696;10.522;2023-05-25T02:04:38;100464.25;;;17.68;100.00
56006;BME280;41888;44.696;10.522;2023-05-25T02:07:05;100461.25;;;17.65;100.00
56006;BME280;41888;44.696;10.522;2023-05-25T02:09:31;100457.25;;;17.67;100.00
56006;BME280;41888;44.696;10.522;2023-05-25T02:11:57;100468.81;;;17.68;100.00
56006;BME280;41888;44.696;10.522;2023-05-25T02:14:23;100468.19;;;17.61;100.00
56006;BME280;41888;44.696;10.522;2023-05-25T02:16:50;100475.31;;;17.72;100.00
56006;BME280;41888;44.696;10.522;2023-05-25T02:19:16;100480.69;;;17.72;100.00
56006;BME280;41888;44.696;10.522;2023-05-25T02:21:43;100477.47;;;17.70;100.00
56006;BME280;41888;44.696;10.522;2023-05-25T02:24:09;100476.47;;;17.76;100.00
56006;BME280;41888;44.696;10.522;2023-05-25T02:26:37;100479.22;;;17.81;100.00
56006;BME280;41888;44.696;10.522;2023-05-25T02:29:04;100477.06;;;17.83;100.00
56006;BME280;41888;44.696;10.522;2023-05-25T02:31:31;100483.56;;;17.87;100.00
56006;BME280;41888;44.696;10.522;2023-05-25T02:33:58;100486.72;;;17.79;100.00
56006;BME280;41888;44.696;10.522;2023-05-25T02:36:24;100485.09;;;17.78;100.00
56006;BME280;41888;44.696;10.522;2023-05-25T02:38:51;100477.84;;;17.79;100.00
56006;BME280;41888;44.696;10.522;2023-05-25T02:41:20;100479.72;;;17.78;100.00
56006;BME280;41888;44.696;10.522;2023-05-25T02:43:46;100481.41;;;17.84;100.00
56006;BME280;41888;44.696;10.522;2023-05-25T02:46:13;100480.81;;;17.82;100.00
56006;BME280;41888;44.696;10.522;2023-05-25T02:48:40;100476.97;;;17.73;100.00
56006;BME280;41888;44.696;10.522;2023-05-25T02:51:06;100476.91;;;17.68;100.00
56006;BME280;41888;44.696;10.522;2023-05-25T02:53:32;100480.66;;;17.67;100.00
56006;BME280;41888;44.696;10.522;2023-05-25T02:55:58;100473.38;;;17.67;100.00
56006;BME280;41888;44.696;10.522;2023-05-25T02:58:27;100488.53;;;17.73;100.00
56006;BME280;41888;44.696;10.522;2023-05-25T03:00:53;100494.22;;;17.77;100.00
56006;BME280;41888;44.696;10.522;2023-05-25T03:03:19;100493.75;;;17.80;100.00
56006;BME280;41888;44.696;10.522;2023-05-25T03:05:45;100502.25;;;17.94;100.00
56006;BME280;41888;44.696;10.522;2023-05-25T03:08:12;100505.25;;;17.97;100.00
56006;BME280;41888;44.696;10.522;2023-05-25T03:10:38;100507.44;;;18.00;100.00
56006;BME280;41888;44.696;10.522;2023-05-25T03:13:04;100507.38;;;17.95;100.00
56006;BME280;41888;44.696;10.522;2023-05-25T03:15:30;100509.06;;;17.80;100.00
56006;BME280;41888;44.696;10.522;2023-05-25T03:17:57;100509.56;;;17.77;100.00
56006;BME280;41888;44.696;10.522;2023-05-25T03:20:26;100511.31;;;17.88;100.00
56006;BME280;41888;44.696;10.522;2023-05-25T03:22:53;100515.03;;;17.82;100.00
56006;BME280;41888;44.696;10.522;2023-05-25T03:25:20;100510.44;;;17.82;100.00
56006;BME280;41888;44.696;10.522;2023-05-25T03:27:46;100519.09;;;17.84;100.00
56006;BME280;41888;44.696;10.522;2023-05-25T03:30:13;100516.91;;;17.81;100.00
56006;BME280;41888;44.696;10.522;2023-05-25T03:32:39;100519.16;;;17.89;100.00
56006;BME280;41888;44.696;10.522;2023-05-25T03:35:05;100523.88;;;17.82;100.00
56006;BME280;41888;44.696;10.522;2023-05-25T03:37:31;100523.69;;;17.67;100.00
56006;BME280;41888;44.696;10.522;2023-05-25T03:39:58;100525.84;;;17.48;100.00
56006;BME280;41888;44.696;10.522;2023-05-25T03:42:24;100528.22;;;17.45;100.00
56006;BME280;41888;44.696;10.522;2023-05-25T03:44:50;100538.03;;;17.56;100.00
56006;BME280;41888;44.696;10.522;2023-05-25T03:47:16;100536.97;;;17.73;100.00
56006;BME280;41888;44.696;10.522;2023-05-25T03:49:42;100548.81;;;17.94;100.00
56006;BME280;41888;44.696;10.522;2023-05-25T03:52:08;100551.63;;;17.83;100.00
56006;BME280;41888;44.696;10.522;2023-05-25T03:54:35;100552.94;;;17.80;100.00
56006;BME280;41888;44.696;10.522;2023-05-25T03:57:01;100545.78;;;17.69;100.00
56006;BME280;41888;44.696;10.522;2023-05-25T03:59:29;100546.28;;;17.66;100.00
56006;BME280;41888;44.696;10.522;2023-05-25T04:01:55;100546.28;;;17.66;100.00
56006;BME280;41888;44.696;10.522;2023-05-25T04:04:22;100553.63;;;17.54;100.00
56006;BME280;41888;44.696;10.522;2023-05-25T04:06:48;100557.38;;;17.53;100.00
56006;BME280;41888;44.696;10.522;2023-05-25T04:09:15;100563.75;;;17.47;100.00
56006;BME280;41888;44.696;10.522;2023-05-25T04:11:41;100566.03;;;17.38;100.00
56006;BME280;41888;44.696;10.522;2023-05-25T04:14:07;100565.78;;;17.40;100.00
56006;BME280;41888;44.696;10.522;2023-05-25T04:16:33;100562.38;;;17.44;100.00
56006;BME280;41888;44.696;10.522;2023-05-25T04:19:00;100571.56;;;17.31;100.00
56006;BME280;41888;44.696;10.522;2023-05-25T04:21:26;100569.31;;;17.07;100.00
56006;BME280;41888;44.696;10.522;2023-05-25T04:23:52;100570.59;;;17.21;100.00
56006;BME280;41888;44.696;10.522;2023-05-25T04:26:19;100582.09;;;17.33;100.00
56006;BME280;41888;44.696;10.522;2023-05-25T04:28:45;100584.28;;;17.53;100.00
56006;BME280;41888;44.696;10.522;2023-05-25T04:31:11;100585.03;;;17.48;100.00
56006;BME280;41888;44.696;10.522;2023-05-25T04:33:38;100582.47;;;17.58;100.00
56006;BME280;41888;44.696;10.522;2023-05-25T04:36:05;100589.50;;;17.43;100.00
56006;BME280;41888;44.696;10.522;2023-05-25T04:38:32;100591.78;;;17.17;100.00
56006;BME280;41888;44.696;10.522;2023-05-25T04:40:59;100596.00;;;17.13;100.00
56006;BME280;41888;44.696;10.522;2023-05-25T04:43:27;100597.34;;;17.27;100.00
56006;BME280;41888;44.696;10.522;2023-05-25T04:45:55;100598.97;;;17.28;100.00
56006;BME280;41888;44.696;10.522;2023-05-25T04:48:22;100604.06;;;17.13;100.00
56006;BME280;41888;44.696;10.522;2023-05-25T04:50:49;100607.56;;;17.14;100.00
56006;BME280;41888;44.696;10.522;2023-05-25T04:53:16;100603.38;;;17.18;100.00
56006;BME280;41888;44.696;10.522;2023-05-25T04:55:42;100609.16;;;17.26;100.00
56006;BME280;41888;44.696;10.522;2023-05-25T04:58:09;100615.28;;;17.39;100.00
56006;BME280;41888;44.696;10.522;2023-05-25T05:00:35;100616.47;;;17.48;100.00
56006;BME280;41888;44.696;10.522;2023-05-25T05:03:01;100613.94;;;17.24;100.00
56006;BME280;41888;44.696;10.522;2023-05-25T05:05:27;100624.34;;;17.04;100.00
56006;BME280;41888;44.696;10.522;2023-05-25T05:07:53;100626.69;;;16.84;100.00
56006;BME280;41888;44.696;10.522;2023-05-25T05:10:20;100633.28;;;16.93;100.00
56006;BME280;41888;44.696;10.522;2023-05-25T05:12:46;100629.47;;;16.89;100.00
56006;BME280;41888;44.696;10.522;2023-05-25T05:15:12;100631.97;;;16.79;100.00
56006;BME280;41888;44.696;10.522;2023-05-25T05:17:38;100636.84;;;16.82;100.00
56006;BME280;41888;44.696;10.522;2023-05-25T05:20:05;100633.88;;;16.95;100.00
56006;BME280;41888;44.696;10.522;2023-05-25T05:22:33;100641.16;;;17.11;100.00
56006;BME280;41888;44.696;10.522;2023-05-25T05:24:59;100651.19;;;17.16;100.00
56006;BME280;41888;44.696;10.522;2023-05-25T05:27:26;100648.50;;;17.16;100.00
56006;BME280;41888;44.696;10.522;2023-05-25T05:29:52;100650.06;;;17.45;100.00
56006;BME280;41888;44.696;10.522;2023-05-25T05:32:18;100653.16;;;17.54;100.00
56006;BME280;41888;44.696;10.522;2023-05-25T05:34:44;100650.78;;;17.41;100.00
56006;BME280;41888;44.696;10.522;2023-05-25T05:37:10;100656.34;;;17.51;100.00
56006;BME280;41888;44.696;10.522;2023-05-25T05:39:37;100660.03;;;17.45;100.00
56006;BME280;41888;44.696;10.522;2023-05-25T05:42:03;100669.44;;;17.30;100.00
56006;BME280;41888;44.696;10.522;2023-05-25T05:44:29;100665.72;;;17.48;100.00
56006;BME280;41888;44.696;10.522;2023-05-25T05:46:56;100668.25;;;17.55;100.00
56006;BME280;41888;44.696;10.522;2023-05-25T05:49:29;100673.13;;;17.58;100.00
56006;BME280;41888;44.696;10.522;2023-05-25T05:51:55;100665.41;;;17.45;100.00
56006;BME280;41888;44.696;10.522;2023-05-25T05:54:22;100675.16;;;17.51;100.00
56006;BME280;41888;44.696;10.522;2023-05-25T05:56:49;100673.81;;;17.65;100.00
56006;BME280;41888;44.696;10.522;2023-05-25T05:59:15;100679.56;;;17.57;100.00
56006;BME280;41888;44.696;10.522;2023-05-25T06:01:41;100684.88;;;17.52;100.00
56006;BME280;41888;44.696;10.522;2023-05-25T06:04:08;100687.47;;;17.47;100.00
56006;BME280;41888;44.696;10.522;2023-05-25T06:06:34;100685.22;;;17.55;100.00
56006;BME280;41888;44.696;10.522;2023-05-25T06:09:02;100687.84;;;17.67;100.00
56006;BME280;41888;44.696;10.522;2023-05-25T06:11:32;100696.56;;;17.74;100.00
56006;BME280;41888;44.696;10.522;2023-05-25T06:14:00;100691.56;;;17.66;100.00
56006;BME280;41888;44.696;10.522;2023-05-25T06:16:26;100703.91;;;17.62;100.00
56006;BME280;41888;44.696;10.522;2023-05-25T06:18:52;100702.91;;;17.68;100.00
56006;BME280;41888;44.696;10.522;2023-05-25T06:21:19;100699.09;;;17.81;100.00
56006;BME280;41888;44.696;10.522;2023-05-25T06:23:45;100701.59;;;17.87;100.00
56006;BME280;41888;44.696;10.522;2023-05-25T06:26:13;100704.47;;;17.97;100.00
56006;BME280;41888;44.696;10.522;2023-05-25T06:28:39;100712.13;;;18.05;100.00
56006;BME280;41888;44.696;10.522;2023-05-25T06:31:06;100705.75;;;18.11;100.00
56006;BME280;41888;44.696;10.522;2023-05-25T06:33:32;100712.44;;;18.09;100.00
56006;BME280;41888;44.696;10.522;2023-05-25T06:35:58;100715.41;;;18.07;100.00
56006;BME280;41888;44.696;10.522;2023-05-25T06:38:26;100716.31;;;17.96;100.00
56006;BME280;41888;44.696;10.522;2023-05-25T06:40:53;100722.34;;;17.87;100.00
56006;BME280;41888;44.696;10.522;2023-05-25T06:43:19;100721.91;;;17.95;100.00
56006;BME280;41888;44.696;10.522;2023-05-25T06:45:45;100719.53;;;17.98;100.00
56006;BME280;41888;44.696;10.522;2023-05-25T06:48:12;100727.06;;;17.96;100.00
56006;BME280;41888;44.696;10.522;2023-05-25T06:50:38;100728.94;;;17.96;100.00
56006;BME280;41888;44.696;10.522;2023-05-25T06:53:05;100718.50;;;17.83;100.00
56006;BME280;41888;44.696;10.522;2023-05-25T06:55:31;100725.28;;;17.85;100.00
56006;BME280;41888;44.696;10.522;2023-05-25T06:57:57;100722.50;;;17.80;100.00
56006;BME280;41888;44.696;10.522;2023-05-25T07:00:24;100726.41;;;17.72;100.00
56006;BME280;41888;44.696;10.522;2023-05-25T07:02:51;100720.63;;;17.81;100.00
56006;BME280;41888;44.696;10.522;2023-05-25T07:05:17;100732.44;;;17.80;100.00
56006;BME280;41888;44.696;10.522;2023-05-25T07:07:43;100729.41;;;17.93;100.00
56006;BME280;41888;44.696;10.522;2023-05-25T07:10:10;100735.22;;;18.01;100.00
56006;BME280;41888;44.696;10.522;2023-05-25T07:12:36;100736.78;;;17.97;100.00
56006;BME280;41888;44.696;10.522;2023-05-25T07:15:02;100730.56;;;18.13;100.00
56006;BME280;41888;44.696;10.522;2023-05-25T07:17:29;100733.81;;;18.15;100.00
56006;BME280;41888;44.696;10.522;2023-05-25T07:19:56;100738.34;;;18.32;100.00
56006;BME280;41888;44.696;10.522;2023-05-25T07:22:22;100743.19;;;18.51;100.00
56006;BME280;41888;44.696;10.522;2023-05-25T07:24:49;100746.94;;;18.67;100.00
56006;BME280;41888;44.696;10.522;2023-05-25T07:27:15;100747.97;;;18.61;100.00
56006;BME280;41888;44.696;10.522;2023-05-25T07:29:42;100753.53;;;18.54;100.00
56006;BME280;41888;44.696;10.522;2023-05-25T07:32:08;100752.41;;;18.72;100.00
56006;BME280;41888;44.696;10.522;2023-05-25T07:34:34;100757.84;;;18.77;100.00
56006;BME280;41888;44.696;10.522;2023-05-25T07:37:00;100758.16;;;18.59;100.00
56006;BME280;41888;44.696;10.522;2023-05-25T07:39:27;100761.19;;;18.46;100.00
56006;BME280;41888;44.696;10.522;2023-05-25T07:41:53;100755.97;;;18.39;100.00
56006;BME280;41888;44.696;10.522;2023-05-25T07:44:19;100761.19;;;18.46;100.00
56006;BME280;41888;44.696;10.522;2023-05-25T07:46:45;100763.50;;;18.54;100.00
56006;BME280;41888;44.696;10.522;2023-05-25T07:49:11;100773.41;;;18.53;100.00
56006;BME280;41888;44.696;10.522;2023-05-25T07:51:42;100766.03;;;18.27;100.00
56006;BME280;41888;44.696;10.522;2023-05-25T07:54:08;100767.97;;;18.48;100.00
56006;BME280;41888;44.696;10.522;2023-05-25T07:56:34;100766.72;;;18.56;100.00
56006;BME280;41888;44.696;10.522;2023-05-25T07:59:00;100764.25;;;18.71;100.00
56006;BME280;41888;44.696;10.522;2023-05-25T08:01:27;100765.69;;;19.01;100.00
56006;BME280;41888;44.696;10.522;2023-05-25T08:03:53;100773.22;;;18.98;100.00
56006;BME280;41888;44.696;10.522;2023-05-25T08:06:20;100768.91;;;18.97;100.00
56006;BME280;41888;44.696;10.522;2023-05-25T08:08:46;100766.88;;;19.10;100.00
56006;BME280;41888;44.696;10.522;2023-05-25T08:11:13;100785.25;;;19.34;100.00
56006;BME280;41888;44.696;10.522;2023-05-25T08:13:39;100771.59;;;19.46;100.00
56006;BME280;41888;44.696;10.522;2023-05-25T08:16:06;100782.59;;;19.39;100.00
56006;BME280;41888;44.696;10.522;2023-05-25T08:18:33;100790.88;;;19.33;100.00
56006;BME280;41888;44.696;10.522;2023-05-25T08:20:59;100796.00;;;19.08;100.00
56006;BME280;41888;44.696;10.522;2023-05-25T08:23:26;100795.03;;;19.19;100.00
56006;BME280;41888;44.696;10.522;2023-05-25T08:25:52;100805.94;;;19.29;100.00
56006;BME280;41888;44.696;10.522;2023-05-25T08:28:20;100797.75;;;19.19;100.00
56006;BME280;41888;44.696;10.522;2023-05-25T08:30:47;100808.25;;;18.98;100.00
56006;BME280;41888;44.696;10.522;2023-05-25T08:33:13;100805.56;;;19.20;100.00
56006;BME280;41888;44.696;10.522;2023-05-25T08:35:40;100813.78;;;19.52;100.00
56006;BME280;41888;44.696;10.522;2023-05-25T08:38:07;100818.34;;;19.52;100.00
56006;BME280;41888;44.696;10.522;2023-05-25T08:40:34;100814.53;;;19.26;100.00
56006;BME280;41888;44.696;10.522;2023-05-25T08:43:00;100819.56;;;18.95;100.00
56006;BME280;41888;44.696;10.522;2023-05-25T08:45:26;100817.81;;;19.28;100.00
56006;BME280;41888;44.696;10.522;2023-05-25T08:47:58;100823.19;;;19.06;100.00
56006;BME280;41888;44.696;10.522;2023-05-25T08:50:26;100813.47;;;19.05;100.00
56006;BME280;41888;44.696;10.522;2023-05-25T08:52:52;100824.56;;;19.30;100.00
56006;BME280;41888;44.696;10.522;2023-05-25T08:55:21;100825.66;;;19.29;100.00
56006;BME280;41888;44.696;10.522;2023-05-25T09:00:47;100833.03;;;19.61;100.00
56006;BME280;41888;44.696;10.522;2023-05-25T09:03:16;100833.34;;;19.64;100.00
56006;BME280;41888;44.696;10.522;2023-05-25T09:05:45;100841.72;;;19.95;100.00
56006;BME280;41888;44.696;10.522;2023-05-25T09:08:13;100833.56;;;19.90;100.00
56006;BME280;41888;44.696;10.522;2023-05-25T09:10:39;100830.16;;;19.72;100.00
56006;BME280;41888;44.696;10.522;2023-05-25T09:13:06;100835.06;;;19.49;100.00
56006;BME280;41888;44.696;10.522;2023-05-25T09:15:32;100847.66;;;19.43;100.00
56006;BME280;41888;44.696;10.522;2023-05-25T09:17:59;100842.75;;;19.62;100.00
56006;BME280;41888;44.696;10.522;2023-05-25T09:20:25;100843.66;;;19.72;100.00
56006;BME280;41888;44.696;10.522;2023-05-25T09:22:57;100860.59;;;20.21;100.00
56006;BME280;41888;44.696;10.522;2023-05-25T09:25:25;100855.09;;;20.38;100.00
56006;BME280;41888;44.696;10.522;2023-05-25T09:27:53;100863.81;;;19.87;100.00
56006;BME280;41888;44.696;10.522;2023-05-25T09:30:19;100862.94;;;20.08;100.00
56006;BME280;41888;44.696;10.522;2023-05-25T09:32:45;100870.19;;;20.34;100.00
56006;BME280;41888;44.696;10.522;2023-05-25T09:35:13;100878.72;;;20.53;100.00
56006;BME280;41888;44.696;10.522;2023-05-25T09:37:41;100874.16;;;20.58;100.00
56006;BME280;41888;44.696;10.522;2023-05-25T09:40:08;100876.78;;;20.48;100.00
56006;BME280;41888;44.696;10.522;2023-05-25T09:42:36;100876.28;;;20.51;100.00
56006;BME280;41888;44.696;10.522;2023-05-25T09:45:04;100874.00;;;20.38;100.00
56006;BME280;41888;44.696;10.522;2023-05-25T09:47:31;100871.09;;;20.45;100.00
56006;BME280;41888;44.696;10.522;2023-05-25T09:49:58;100865.59;;;20.72;100.00
56006;BME280;41888;44.696;10.522;2023-05-25T09:52:25;100870.59;;;20.95;100.00
56006;BME280;41888;44.696;10.522;2023-05-25T09:54:52;100874.38;;;20.94;100.00
56006;BME280;41888;44.696;10.522;2023-05-25T09:57:19;100879.72;;;21.31;100.00
56006;BME280;41888;44.696;10.522;2023-05-25T09:59:46;100866.16;;;21.26;100.00
56006;BME280;41888;44.696;10.522;2023-05-25T10:02:13;100875.53;;;21.03;100.00
56006;BME280;41888;44.696;10.522;2023-05-25T10:04:40;100871.88;;;21.24;100.00
56006;BME280;41888;44.696;10.522;2023-05-25T10:07:07;100875.13;;;20.84;100.00
56006;BME280;41888;44.696;10.522;2023-05-25T10:09:40;100877.03;;;20.89;100.00
56006;BME280;41888;44.696;10.522;2023-05-25T10:12:08;100868.41;;;20.92;100.00
56006;BME280;41888;44.696;10.522;2023-05-25T10:14:36;100864.09;;;21.53;100.00
56006;BME280;41888;44.696;10.522;2023-05-25T10:17:04;100870.41;;;21.89;100.00
56006;BME280;41888;44.696;10.522;2023-05-25T10:19:54;100864.50;;;22.48;100.00
56006;BME280;41888;44.696;10.522;2023-05-25T10:22:32;100869.66;;;22.09;100.00
56006;BME280;41888;44.696;10.522;2023-05-25T10:27:43;100859.47;;;21.43;100.00
56006;BME280;41888;44.696;10.522;2023-05-25T10:30:13;100862.81;;;21.71;100.00
56006;BME280;41888;44.696;10.522;2023-05-25T10:32:41;100861.53;;;22.04;100.00
56006;BME280;41888;44.696;10.522;2023-05-25T10:35:08;100859.69;;;21.32;100.00
56006;BME280;41888;44.696;10.522;2023-05-25T10:37:35;100867.16;;;21.77;100.00
56006;BME280;41888;44.696;10.522;2023-05-25T10:40:02;100868.72;;;21.58;100.00
56006;BME280;41888;44.696;10.522;2023-05-25T10:42:31;100875.56;;;21.85;100.00
56006;BME280;41888;44.696;10.522;2023-05-25T10:44:59;100873.19;;;22.24;100.00
56006;BME280;41888;44.696;10.522;2023-05-25T10:47:26;100879.00;;;21.56;100.00
56006;BME280;41888;44.696;10.522;2023-05-25T10:49:58;100870.41;;;21.84;100.00
56006;BME280;41888;44.696;10.522;2023-05-25T10:52:28;100865.31;;;22.33;100.00
56006;BME280;41888;44.696;10.522;2023-05-25T10:55:00;100873.19;;;22.04;100.00
56006;BME280;41888;44.696;10.522;2023-05-25T10:57:30;100864.50;;;22.43;100.00
56006;BME280;41888;44.696;10.522;2023-05-25T11:00:07;100865.59;;;22.52;100.00
56006;BME280;41888;44.696;10.522;2023-05-25T11:02:51;100868.28;;;22.37;100.00
56006;BME280;41888;44.696;10.522;2023-05-25T11:08:00;100869.09;;;22.22;100.00
56006;BME280;41888;44.696;10.522;2023-05-25T11:10:53;100865.56;;;21.96;100.00
56006;BME280;41888;44.696;10.522;2023-05-25T11:18:53;100859.56;;;21.89;100.00
56006;BME280;41888;44.696;10.522;2023-05-25T11:23:55;100855.78;;;22.86;100.00
56006;BME280;41888;44.696;10.522;2023-05-25T11:26:23;100851.75;;;22.79;100.00
56006;BME280;41888;44.696;10.522;2023-05-25T11:28:54;100852.31;;;22.45;100.00
56006;BME280;41888;44.696;10.522;2023-05-25T11:31:28;100855.28;;;22.33;100.00
56006;BME280;41888;44.696;10.522;2023-05-25T11:34:00;100845.53;;;22.27;100.00
56006;BME280;41888;44.696;10.522;2023-05-25T11:36:27;100845.78;;;22.21;100.00
56006;BME280;41888;44.696;10.522;2023-05-25T11:39:03;100844.97;;;22.10;100.00
56006;BME280;41888;44.696;10.522;2023-05-25T11:41:30;100840.25;;;21.45;100.00
56006;BME280;41888;44.696;10.522;2023-05-25T11:44:05;100848.72;;;21.79;100.00
56006;BME280;41888;44.696;10.522;2023-05-25T11:46:32;100846.81;;;21.74;100.00
56006;BME280;41888;44.696;10.522;2023-05-25T11:49:00;100848.03;;;21.26;100.00
56006;BME280;41888;44.696;10.522;2023-05-25T11:51:27;100830.97;;;21.21;100.00
56006;BME280;41888;44.696;10.522;2023-05-25T11:53:54;100835.03;;;21.23;100.00
56006;BME280;41888;44.696;10.522;2023-05-25T11:56:21;100828.38;;;21.51;100.00
56006;BME280;41888;44.696;10.522;2023-05-25T11:58:49;100828.63;;;21.44;100.00
56006;BME280;41888;44.696;10.522;2023-05-25T12:01:16;100823.72;;;21.36;100.00
56006;BME280;41888;44.696;10.522;2023-05-25T12:03:46;100819.41;;;21.40;100.00
56006;BME280;41888;44.696;10.522;2023-05-25T12:06:30;100820.47;;;21.34;100.00
56006;BME280;41888;44.696;10.522;2023-05-25T12:08:59;100818.06;;;21.48;100.00
56006;BME280;41888;44.696;10.522;2023-05-25T12:11:27;100816.75;;;21.66;100.00
56006;BME280;41888;44.696;10.522;2023-05-25T12:13:55;100823.25;;;21.70;100.00
56006;BME280;41888;44.696;10.522;2023-05-25T12:16:22;100816.28;;;21.94;100.00
56006;BME280;41888;44.696;10.522;2023-05-25T12:18:48;100823.03;;;21.97;100.00
56006;BME280;41888;44.696;10.522;2023-05-25T12:21:15;100822.19;;;21.86;100.00
56006;BME280;41888;44.696;10.522;2023-05-25T12:23:41;100819.50;;;22.21;100.00
56006;BME280;41888;44.696;10.522;2023-05-25T12:26:10;100815.47;;;22.09;100.00
56006;BME280;41888;44.696;10.522;2023-05-25T12:28:37;100808.66;;;22.26;100.00
56006;BME280;41888;44.696;10.522;2023-05-25T12:31:22;100807.28;;;22.49;100.00
56006;BME280;41888;44.696;10.522;2023-05-25T12:34:16;100807.53;;;22.73;100.00
56006;BME280;41888;44.696;10.522;2023-05-25T12:36:47;100802.31;;;22.92;100.00
56006;BME280;41888;44.696;10.522;2023-05-25T12:39:15;100792.88;;;22.59;100.00
56006;BME280;41888;44.696;10.522;2023-05-25T12:41:50;100792.69;;;22.30;100.00
56006;BME280;41888;44.696;10.522;2023-05-25T12:44:31;100802.16;;;22.27;100.00
56006;BME280;41888;44.696;10.522;2023-05-25T12:47:17;100792.13;;;22.38;100.00
56006;BME280;41888;44.696;10.522;2023-05-25T12:49:52;100783.38;;;22.66;100.00
56006;BME280;41888;44.696;10.522;2023-05-25T12:52:37;100776.91;;;23.22;100.00